Flight Track Log - Related Links

Times and Time Zones

All times are in EDT time to prevent confusion due to time zone crossing. See the SKW6345 flight status page for this flight to view local times or setup timezone preferences in your user account.

Time Position Orientation Groundspeed Altitude Reporting Facility
EDT Latitude Longitude Course Direction KTS MPH feet Rate Location/Type
Fri 11:33:23 AM 37.6500 -122.3500 38° Northeast 162 186 2,100  Level Northern Cal TRACON
Fri 11:34:23 AM 37.6833 -122.2833 58° Northeast 225 259 4,100 2,200 Climbing Northern Cal TRACON
Fri 11:35:00 AM 37.6214 -122.3937 120° Southeast  Level FlightAware Approximate
Fri 11:35:23 AM 37.7333 -122.2167 47° Northeast 258 297 6,500  Level Northern Cal TRACON
Fri 11:36:00 AM 37.7075 -122.2759 38° Northeast  Level FlightAware Approximate
Fri 11:36:23 AM 37.8000 -122.1667 31° Northeast 282 325 8,700  Level Northern Cal TRACON
Fri 11:37:00 AM 37.8161 -122.1672 38° Northeast  Level FlightAware Approximate
Fri 11:37:23 AM 37.8667 -122.1000 38° Northeast 293 337 10,800  Level Northern Cal TRACON
Fri 11:38:00 AM 37.9248 -122.0586 38° Northeast  Level FlightAware Approximate
Fri 11:38:27 AM 37.9369 -122.0364 36° Northeast 331 381 12,000  Level Oakland Center
Fri 11:39:28 AM 38.0150 -121.9597 38° Northeast 353 406 13,200 1,220 Climbing Oakland Center
Fri 11:40:30 AM 38.0989 -121.8822 36° Northeast 372 428 14,500 1,463 Climbing Oakland Center
Fri 11:41:31 AM 38.1819 -121.8028 37° Northeast 375 432 16,200 1,512 Climbing Oakland Center
Fri 11:42:33 AM 38.2700 -121.7281 34° Northeast 380 437 17,600 1,317 Climbing Oakland Center
Fri 11:43:34 AM 38.3794 -121.6378 33° Northeast 391 450 18,900 1,268 Climbing Oakland Center
Fri 11:44:36 AM 38.4703 -121.5633 33° Northeast 401 461 20,200 1,366 Climbing Oakland Center
Fri 11:45:37 AM 38.5669 -121.4833 33° Northeast 401 461 21,700 1,366 Climbing Oakland Center
Fri 11:46:39 AM 38.6597 -121.4031 34° Northeast 404 465 23,000 927 Climbing Oakland Center
Fri 11:47:40 AM 38.7589 -121.3242 32° Northeast 410 472 23,600 585 Climbing Oakland Center
Fri 11:48:42 AM 38.8583 -121.2392 34° Northeast 424 488 24,200 634 Climbing Oakland Center
Fri 11:49:43 AM 38.9611 -121.1517 33° Northeast 440 506 24,900 634 Climbing Oakland Center
Fri 11:50:45 AM 39.0661 -121.0625 33° Northeast 450 518 25,500 537 Climbing Oakland Center
Fri 11:51:46 AM 39.1711 -120.9739 33° Northeast 452 520 26,000 492 Climbing Oakland Center
Fri 11:52:47 AM 39.2789 -120.8825 33° Northeast 462 532 26,500 585 Climbing Oakland Center
Fri 11:53:49 AM 39.4086 -120.7692 34° Northeast 470 541 27,200 732 Climbing Oakland Center
Fri 11:54:50 AM 39.5161 -120.6769 33° Northeast 467 537 28,000 780 Climbing Oakland Center
Fri 11:55:52 AM 39.6225 -120.5861 33° Northeast 460 529 28,800 634 Climbing Oakland Center
Fri 11:56:53 AM 39.7294 -120.4925 34° Northeast 460 529 29,300 488 Climbing Oakland Center
Fri 11:57:55 AM 39.8378 -120.3989 34° Northeast 466 536 29,800 488 Climbing Oakland Center
Fri 11:58:56 AM 39.9461 -120.3039 34° Northeast 470 541 30,300 488 Climbing Oakland Center
Fri 11:59:58 AM 40.0517 -120.2106 34° Northeast 476 548 30,800 537 Climbing Oakland Center
Fri 12:00:59 PM 40.1831 -120.0944 34° Northeast 475 547 31,400 585 Climbing Oakland Center
Fri 12:02:01 PM 40.2933 -119.9975 34° Northeast 476 548 32,000 634 Climbing Oakland Center
Fri 12:03:02 PM 40.4022 -119.8989 35° Northeast 475 547 32,700 488 Climbing Oakland Center
Fri 12:04:04 PM 40.5097 -119.8044 34° Northeast 466 536 33,000 146 Climbing Oakland Center
Fri 12:05:05 PM 40.6214 -119.7036 34° Northeast 480 552 33,000  Level Oakland Center
Fri 12:06:07 PM 40.7344 -119.6031 34° Northeast 486 559 33,000  Level Oakland Center
Fri 12:07:08 PM 40.8500 -119.4969 35° Northeast 489 563 33,000  Level Oakland Center
Fri 12:08:10 PM 40.9597 -119.3975 34° Northeast 496 571 33,000  Level Oakland Center
Fri 12:09:15 PM 41.0897 -119.2808 34° Northeast 499 574 33,000  Level Salt Lake Center
Fri 12:10:17 PM 41.2119 -119.1597 37° Northeast 493 567 33,000  Level Salt Lake Center
Fri 12:11:19 PM 41.3003 -119.0278 48° Northeast 496 571 33,000  Level Salt Lake Center
Fri 12:12:21 PM 41.3867 -118.8939 49° Northeast 497 572 33,000  Level Salt Lake Center
Fri 12:13:18 PM 41.4725 -118.7597 49° Northeast 497 572 33,000  Level Oakland Center
Fri 12:14:25 PM 41.5733 -118.6028 49° Northeast 497 572 33,000  Level Salt Lake Center
Fri 12:15:27 PM 41.6756 -118.4439 49° Northeast 500 575 33,000  Level Salt Lake Center
Fri 12:16:29 PM 41.7628 -118.3069 49° Northeast 503 579 33,000  Level Salt Lake Center
Fri 12:17:31 PM 41.8639 -118.1481 49° Northeast 500 575 33,000  Level Salt Lake Center
Fri 12:18:33 PM 41.9500 -118.0097 50° Northeast 503 579 33,000  Level Salt Lake Center
Fri 12:19:35 PM 42.0517 -117.8467 50° Northeast 507 583 33,000  Level Salt Lake Center
Fri 12:20:37 PM 42.1383 -117.7092 50° Northeast 504 580 33,000  Level Salt Lake Center
Fri 12:21:39 PM 42.2242 -117.5681 51° Northeast 505 581 33,000  Level Salt Lake Center
Fri 12:22:41 PM 42.3322 -117.3881 51° Northeast 510 587 33,000  Level Salt Lake Center
Fri 12:23:43 PM 42.4183 -117.2475 50° Northeast 508 585 33,000  Level Salt Lake Center
Fri 12:24:45 PM 42.5050 -117.1056 50° Northeast 512 589 33,000  Level Salt Lake Center
Fri 12:25:47 PM 42.6058 -116.9400 50° Northeast 509 586 33,000  Level Salt Lake Center
Fri 12:26:49 PM 42.6936 -116.7967 50° Northeast 513 590 33,000  Level Salt Lake Center
Fri 12:27:51 PM 42.7944 -116.6269 51° Northeast 517 595 33,000  Level Salt Lake Center
Fri 12:28:53 PM 42.8825 -116.4822 50° Northeast 518 596 33,000  Level Salt Lake Center
Fri 12:29:55 PM 42.9842 -116.3106 51° Northeast 522 601 33,000  Level Salt Lake Center
Fri 12:30:57 PM 43.0719 -116.1625 51° Northeast 525 604 33,000  Level Salt Lake Center
Fri 12:32:00 PM 43.1744 -115.9883 51° Northeast 526 605 33,000  Level Salt Lake Center
Fri 12:33:01 PM 43.2628 -115.8383 51° Northeast 529 609 33,000  Level Salt Lake Center
Fri 12:34:03 PM 43.3664 -115.6600 51° Northeast 537 618 33,000  Level Salt Lake Center
Fri 12:35:05 PM 43.4550 -115.5064 51° Northeast 537 618 33,000  Level Salt Lake Center
Fri 12:36:07 PM 43.5597 -115.3261 51° Northeast 541 623 33,000  Level Salt Lake Center
Fri 12:37:09 PM 43.6489 -115.1708 52° Northeast 542 624 33,000  Level Salt Lake Center
Fri 12:38:11 PM 43.7525 -114.9878 52° Northeast 544 626 33,000  Level Salt Lake Center
Fri 12:39:13 PM 43.8422 -114.8292 52° Northeast 548 631 33,000  Level Salt Lake Center
Fri 12:40:16 PM 43.9469 -114.6444 52° Northeast 549 632 33,000  Level Salt Lake Center
Fri 12:41:18 PM 44.0358 -114.4850 52° Northeast 547 629 33,000  Level Salt Lake Center
Fri 12:42:20 PM 44.1392 -114.2975 52° Northeast 547 629 33,000  Level Salt Lake Center
Fri 12:43:22 PM 44.2250 -114.1400 53° Northeast 539 620 33,000  Level Salt Lake Center
Fri 12:44:24 PM 44.3253 -113.9544 53° Northeast 539 620 33,000  Level Salt Lake Center
Fri 12:45:26 PM 44.4167 -113.7906 52° Northeast 535 616 33,000  Level Salt Lake Center
Fri 12:46:28 PM 44.5008 -113.6328 53° Northeast 529 609 33,000  Level Salt Lake Center
Fri 12:47:30 PM 44.6006 -113.4492 53° Northeast 531 611 33,000  Level Salt Lake Center
Fri 12:48:32 PM 44.6839 -113.2900 54° Northeast 529 609 33,000  Level Salt Lake Center
Fri 12:49:34 PM 44.7969 -113.1261 46° Northeast 518 596 33,000  Level Salt Lake Center
Fri 12:50:36 PM 44.8967 -112.9908 44° Northeast 519 597 33,000 -194 Level Salt Lake Center
Fri 12:51:38 PM 44.9972 -112.8558 43° Northeast 520 598 32,600 -1,452 Descending Salt Lake Center
Fri 12:52:40 PM 45.1189 -112.6928 43° Northeast 537 618 30,000 -2,613 Descending Salt Lake Center
Fri 12:53:42 PM 45.2231 -112.5517 44° Northeast 538 619 27,200 -2,880 Descending Salt Lake Center
Fri 12:54:45 PM 45.3342 -112.4003 44° Northeast 505 581 24,000 -2,806 Descending Salt Lake Center
Fri 12:55:46 PM 45.4131 -112.2931 44° Northeast 458 527 21,400 -2,585 Descending Salt Lake Center
Fri 12:56:48 PM 45.5233 -112.1753 37° Northeast 416 479 18,700 -1,887 Descending Salt Lake Center
Fri 12:57:50 PM 45.6072 -112.0767 39° Northeast 408 470 17,500 -1,306 Descending Salt Lake Center
Fri 12:58:52 PM 45.6794 -111.9631 48° Northeast 390 449 16,000 -1,403 Descending Salt Lake Center
Fri 12:59:54 PM 45.7497 -111.8547 47° Northeast 375 432 14,600 -1,452 Descending Salt Lake Center
Fri 01:00:56 PM 45.8147 -111.7533 47° Northeast 354 407 13,000 -1,403 Descending Salt Lake Center
Fri 01:01:58 PM 45.8683 -111.6708 47° Northeast 298 343 11,700 -1,597 Descending Salt Lake Center
Fri 01:03:00 PM 45.9164 -111.5961 47° Northeast 273 314 9,700 -1,355 Descending Salt Lake Center
Fri 01:04:02 PM 45.9597 -111.5250 49° Northeast 253 291 8,900 -823 Descending Salt Lake Center
Fri 01:05:04 PM 45.9772 -111.4325 75° East 235 270 8,000 -532 Descending Salt Lake Center
Fri 01:06:06 PM 45.9350 -111.3703 134° Southeast 225 259 7,800 -194 Descending Salt Lake Center

Login

Don't have an account? Register now (free) for customized features, flight alerts, and more!